Time;durP1;ratioP1;P1;durP2;ratioP2;P2;SDS_P1;SDS_P2;PMS_P1;PMS_P2;Temp;Humidity;BMP_temperature;BMP_pressure;BME280_temperature;BME280_humidity;BME280_pressure;Samples;Min_cycle;Max_cycle;Signal;HPM_P1;HPM_P2
2022/07/04 00:01:54;;;;;;;1.00;1.00;;;23.30;68.70;;;;;;5069323;28;43886;-69
2022/07/04 00:04:22;;;;;;;0.90;0.90;;;23.50;68.30;;;;;;5069737;28;44056;-69
2022/07/04 00:06:50;;;;;;;1.10;1.10;;;23.60;67.50;;;;;;5068617;28;43911;-69
2022/07/04 00:09:18;;;;;;;1.00;1.00;;;23.90;67.10;;;;;;5069137;28;43952;-68
2022/07/04 00:11:46;;;;;;;1.03;1.03;;;24.00;66.40;;;;;;5069070;28;43963;-69
2022/07/04 00:14:14;;;;;;;0.90;0.90;;;24.20;66.10;;;;;;5069712;28;43952;-70
2022/07/04 00:16:43;;;;;;;1.10;1.10;;;24.30;65.60;;;;;;5050825;28;45929;-69
2022/07/04 00:19:11;;;;;;;1.20;1.20;;;24.40;65.40;;;;;;5069108;28;44009;-69
2022/07/04 00:21:39;;;;;;;0.90;0.90;;;24.50;65.00;;;;;;5069160;28;44031;-68
2022/07/04 00:24:07;;;;;;;1.00;1.00;;;24.50;64.80;;;;;;5069733;28;43356;-69
2022/07/04 00:26:35;;;;;;;1.00;1.00;;;24.60;64.60;;;;;;5068762;28;43552;-69
2022/07/04 00:29:03;;;;;;;0.90;0.90;;;24.70;64.40;;;;;;5068684;28;43996;-70
2022/07/04 00:31:31;;;;;;;1.20;1.10;;;24.70;64.30;;;;;;5068832;28;43381;-69
2022/07/04 00:34:01;;;;;;;0.90;0.90;;;24.80;64.20;;;;;;5069056;28;43822;-70
2022/07/04 00:36:28;;;;;;;0.90;0.90;;;24.80;64.10;;;;;;5068740;28;44049;-70
2022/07/04 00:38:56;;;;;;;1.00;1.00;;;24.80;63.90;;;;;;5068471;28;43858;-70
2022/07/04 00:41:24;;;;;;;1.00;1.00;;;24.80;63.80;;;;;;5068733;28;43374;-69
2022/07/04 00:44:02;;;;;;;0.90;0.90;;;24.90;63.50;;;;;;5069139;28;44007;-69
2022/07/04 00:46:40;;;;;;;1.13;1.13;;;24.80;63.90;;;;;;5068702;28;44956;-69
2022/07/04 00:49:10;;;;;;;0.90;0.90;;;24.70;64.30;;;;;;5050448;28;44676;-70
2022/07/04 00:51:38;;;;;;;0.87;0.87;;;24.40;64.50;;;;;;5068900;28;44053;-70
2022/07/04 00:54:06;;;;;;;0.93;0.93;;;24.20;65.10;;;;;;5050601;28;44017;-69
2022/07/04 00:56:36;;;;;;;1.00;1.00;;;24.00;65.60;;;;;;5068454;28;43659;-69
2022/07/04 00:59:04;;;;;;;0.90;0.90;;;23.80;66.00;;;;;;5049794;28;44765;-69
2022/07/04 01:01:32;;;;;;;0.90;0.90;;;23.70;66.70;;;;;;5067948;28;43909;-69
2022/07/04 01:04:00;;;;;;;0.90;0.90;;;23.50;66.90;;;;;;5067745;28;43431;-69
2022/07/04 01:06:29;;;;;;;0.90;0.90;;;23.40;67.10;;;;;;5066906;28;44951;-69
2022/07/04 01:08:57;;;;;;;0.97;0.97;;;23.40;67.50;;;;;;5066766;28;43918;-69
2022/07/04 01:11:25;;;;;;;0.90;0.90;;;23.30;67.60;;;;;;5067012;28;43783;-70
2022/07/04 01:13:54;;;;;;;0.90;0.90;;;23.20;67.80;;;;;;5067369;28;43432;-69
2022/07/04 01:16:22;;;;;;;0.90;0.90;;;23.20;68.00;;;;;;5066718;28;43948;-69
2022/07/04 01:18:51;;;;;;;0.80;0.80;;;23.20;68.10;;;;;;5066523;28;43879;-69
2022/07/04 01:21:21;;;;;;;0.80;0.80;;;23.20;68.30;;;;;;5066651;28;44000;-69
2022/07/04 01:23:49;;;;;;;1.00;1.00;;;23.10;69.20;;;;;;5048702;28;43902;-69
2022/07/04 01:26:17;;;;;;;0.97;0.97;;;23.10;69.50;;;;;;5066612;28;43937;-69
2022/07/04 01:28:45;;;;;;;1.00;1.00;;;23.20;69.40;;;;;;5066252;28;43951;-70
2022/07/04 01:31:13;;;;;;;0.90;0.90;;;23.30;69.20;;;;;;5066730;28;43340;-68
2022/07/04 01:33:41;;;;;;;0.80;0.80;;;23.40;68.90;;;;;;5067207;28;43754;-70
2022/07/04 01:36:09;;;;;;;0.90;0.90;;;23.50;68.40;;;;;;5066628;28;43906;-69
2022/07/04 01:38:38;;;;;;;0.80;0.80;;;23.70;68.00;;;;;;5066539;28;44007;-70
2022/07/04 01:41:06;;;;;;;0.97;0.97;;;23.80;67.50;;;;;;5048264;28;43432;-70
2022/07/04 01:43:35;;;;;;;0.80;0.80;;;24.00;67.00;;;;;;5066721;28;43896;-69
2022/07/04 01:46:03;;;;;;;0.80;0.80;;;24.10;66.60;;;;;;5066389;28;44078;-69
2022/07/04 01:48:31;;;;;;;0.90;0.90;;;24.30;66.30;;;;;;5066036;28;43964;-69
2022/07/04 01:50:59;;;;;;;0.80;0.80;;;24.30;65.90;;;;;;5065613;28;43379;-70
2022/07/04 01:53:27;;;;;;;0.90;0.90;;;24.40;65.60;;;;;;5066632;28;43381;-69
2022/07/04 01:55:56;;;;;;;0.97;0.97;;;24.40;65.30;;;;;;5065830;28;43942;-68
2022/07/04 01:58:24;;;;;;;0.70;0.70;;;24.40;65.40;;;;;;5065927;28;43971;-70
2022/07/04 02:03:53;;;;;;;0.90;0.90;;;24.10;65.70;;;;;;5088416;27;43974;-70
2022/07/04 02:06:21;;;;;;;0.80;0.80;;;23.90;66.20;;;;;;5083702;27;43974;-69
2022/07/04 02:14:16;;;;;;;0.90;0.90;;;23.50;67.40;;;;;;5081236;28;44039;-69
2022/07/04 02:16:44;;;;;;;0.80;0.80;;;23.40;67.70;;;;;;5083242;28;43939;-69
2022/07/04 02:19:13;;;;;;;0.80;0.80;;;23.30;67.90;;;;;;5083530;28;44145;-69
2022/07/04 02:21:41;;;;;;;0.70;0.70;;;23.20;68.10;;;;;;5084055;28;43960;-69
2022/07/04 02:24:10;;;;;;;0.80;0.80;;;23.20;68.30;;;;;;5083597;28;43980;-69
2022/07/04 02:26:38;;;;;;;0.70;0.70;;;23.10;68.30;;;;;;5083557;27;43927;-69
2022/07/04 02:29:06;;;;;;;0.90;0.90;;;23.10;68.50;;;;;;5083342;27;43896;-69
2022/07/04 02:31:34;;;;;;;0.90;0.90;;;23.10;68.60;;;;;;5083726;28;44081;-69
2022/07/04 02:34:02;;;;;;;0.80;0.80;;;23.10;68.80;;;;;;5083205;27;44018;-69
2022/07/04 02:36:31;;;;;;;0.63;0.63;;;23.00;68.70;;;;;;5081652;28;44920;-69
2022/07/04 02:38:59;;;;;;;0.70;0.70;;;23.00;69.60;;;;;;5083145;28;43891;-70
2022/07/04 02:41:27;;;;;;;1.00;1.00;;;23.00;70.10;;;;;;5083634;28;44103;-69
2022/07/04 02:43:55;;;;;;;0.70;0.70;;;23.10;70.00;;;;;;5082973;28;45124;-69
2022/07/04 02:46:23;;;;;;;0.80;0.80;;;23.20;69.60;;;;;;5082945;28;43946;-69
2022/07/04 02:48:51;;;;;;;0.90;0.90;;;23.30;69.20;;;;;;5083165;27;43423;-68
2022/07/04 02:51:19;;;;;;;0.80;0.80;;;23.50;68.90;;;;;;5076513;28;44010;-70
2022/07/04 02:53:48;;;;;;;0.80;0.80;;;23.60;68.50;;;;;;5074736;28;45883;-69
2022/07/04 02:56:16;;;;;;;0.73;0.73;;;23.70;67.80;;;;;;5076461;28;43931;-69
2022/07/04 02:58:44;;;;;;;0.80;0.80;;;23.90;67.50;;;;;;5076359;28;43766;-70
2022/07/04 03:01:13;;;;;;;0.90;0.90;;;24.00;67.10;;;;;;5077028;28;43356;-69
2022/07/04 03:03:41;;;;;;;0.80;0.80;;;24.10;66.80;;;;;;5076288;28;44014;-69
2022/07/04 03:06:09;;;;;;;0.80;0.80;;;24.20;66.50;;;;;;5082703;27;43939;-69
2022/07/04 03:08:37;;;;;;;0.90;0.90;;;24.30;66.20;;;;;;5076582;28;43838;-69
2022/07/04 03:11:07;;;;;;;1.07;0.90;;;24.40;65.90;;;;;;5076821;28;43936;-69
2022/07/04 03:13:36;;;;;;;0.73;0.73;;;24.30;65.90;;;;;;5078039;27;44677;-69
2022/07/04 03:16:04;;;;;;;0.80;0.80;;;24.20;66.00;;;;;;5068978;28;43860;-70
2022/07/04 03:18:32;;;;;;;0.70;0.70;;;24.10;66.30;;;;;;5069055;28;43379;-70
2022/07/04 03:21:01;;;;;;;0.70;0.70;;;23.90;66.60;;;;;;5069198;28;43469;-69
2022/07/04 03:23:29;;;;;;;0.80;0.80;;;23.70;66.90;;;;;;5069013;28;43909;-70
2022/07/04 03:25:57;;;;;;;0.60;0.60;;;23.60;67.40;;;;;;5069075;28;43480;-70
2022/07/04 03:28:26;;;;;;;0.87;0.80;;;23.50;67.70;;;;;;5068902;28;43891;-69
2022/07/04 03:30:54;;;;;;;0.80;0.80;;;23.40;68.00;;;;;;5068708;28;43955;-69
2022/07/04 03:33:22;;;;;;;0.80;0.80;;;23.30;68.20;;;;;;5067402;28;46361;-70
2022/07/04 03:35:50;;;;;;;0.70;0.70;;;23.20;68.30;;;;;;5068708;28;43945;-70
2022/07/04 03:38:18;;;;;;;1.27;0.80;;;23.20;68.50;;;;;;5068743;28;43995;-68
2022/07/04 03:40:46;;;;;;;0.93;0.93;;;23.10;68.60;;;;;;5069013;28;44838;-69
2022/07/04 03:43:14;;;;;;;0.83;0.83;;;23.10;68.70;;;;;;5068880;28;44017;-69
2022/07/04 03:45:44;;;;;;;1.00;1.00;;;23.10;68.90;;;;;;5068693;28;43945;-69
2022/07/04 03:48:12;;;;;;;0.90;0.90;;;23.00;68.90;;;;;;5068673;28;43932;-68
2022/07/04 03:50:40;;;;;;;1.00;1.00;;;23.00;69.10;;;;;;5069376;28;43852;-69
2022/07/04 03:53:08;;;;;;;1.03;1.03;;;23.00;69.10;;;;;;5068831;28;43933;-69
2022/07/04 03:55:36;;;;;;;1.10;1.10;;;23.00;69.20;;;;;;5068796;28;43436;-69
2022/07/04 03:58:04;;;;;;;1.30;1.30;;;23.00;70.20;;;;;;5068265;28;43994;-71
2022/07/04 04:00:33;;;;;;;1.23;1.23;;;23.00;70.10;;;;;;5069161;28;43884;-69
2022/07/04 04:03:02;;;;;;;1.60;1.50;;;23.10;69.80;;;;;;5068163;28;43927;-69
2022/07/04 04:05:30;;;;;;;1.50;1.40;;;23.20;69.40;;;;;;5068549;28;44298;-68
2022/07/04 04:08:00;;;;;;;1.10;1.10;;;23.40;69.20;;;;;;5068468;28;43844;-70
2022/07/04 04:10:28;;;;;;;1.27;1.23;;;23.50;68.60;;;;;;5068434;28;44204;-69
2022/07/04 04:12:56;;;;;;;1.53;1.47;;;23.60;68.10;;;;;;5068314;28;44350;-69
2022/07/04 04:15:24;;;;;;;1.43;1.43;;;23.80;67.70;;;;;;5068359;28;43445;-69
2022/07/04 04:17:52;;;;;;;1.97;1.33;;;23.90;67.50;;;;;;5068288;28;43856;-70
2022/07/04 04:20:21;;;;;;;1.70;1.60;;;24.00;67.10;;;;;;5068500;28;44052;-69
2022/07/04 04:22:49;;;;;;;1.50;1.40;;;24.10;67.50;;;;;;5067997;28;45017;-69
2022/07/04 04:25:18;;;;;;;1.90;1.77;;;24.20;66.40;;;;;;5066954;28;44043;-70
2022/07/04 04:27:46;;;;;;;1.50;1.40;;;24.30;66.30;;;;;;5068363;28;44003;-69
2022/07/04 04:30:14;;;;;;;1.27;1.27;;;24.20;66.00;;;;;;5068268;28;44065;-70
2022/07/04 04:32:42;;;;;;;1.70;1.60;;;24.10;66.10;;;;;;5068115;28;44073;-69
2022/07/04 04:35:12;;;;;;;1.50;1.47;;;24.00;66.30;;;;;;5068251;28;43944;-69
2022/07/04 04:37:41;;;;;;;1.33;1.10;;;23.80;66.30;;;;;;5066648;28;43785;-69
2022/07/04 04:40:11;;;;;;;1.53;1.53;;;23.70;67.10;;;;;;5068391;28;44045;-70
2022/07/04 04:42:39;;;;;;;1.50;1.40;;;23.50;67.40;;;;;;5068127;28;43917;-70
2022/07/04 04:45:07;;;;;;;1.60;1.50;;;23.40;67.70;;;;;;5068006;28;44006;-70
2022/07/04 04:47:35;;;;;;;1.70;1.63;;;23.30;68.00;;;;;;5067818;28;44033;-69
2022/07/04 04:50:04;;;;;;;1.47;1.47;;;23.20;68.20;;;;;;5068100;28;43982;-69
2022/07/04 04:52:32;;;;;;;1.70;1.60;;;23.20;68.50;;;;;;5067494;28;43716;-70
2022/07/04 04:55:01;;;;;;;1.60;1.60;;;23.10;68.60;;;;;;5067637;28;43447;-69
2022/07/04 04:57:29;;;;;;;1.80;1.60;;;23.10;68.80;;;;;;5067813;28;43922;-69
2022/07/04 04:59:57;;;;;;;1.50;1.50;;;23.10;69.00;;;;;;5066712;28;44254;-69
2022/07/04 05:02:25;;;;;;;1.50;1.50;;;23.00;68.90;;;;;;5067131;28;43956;-69
2022/07/04 05:04:53;;;;;;;1.50;1.50;;;23.00;69.00;;;;;;5067375;28;43900;-69
2022/07/04 05:07:21;;;;;;;1.60;1.60;;;23.00;69.10;;;;;;5065993;28;43775;-69
2022/07/04 05:09:49;;;;;;;1.53;1.53;;;23.00;69.10;;;;;;5067990;28;43360;-69
2022/07/04 05:12:18;;;;;;;1.90;1.80;;;23.00;69.70;;;;;;5067065;28;44005;-68
2022/07/04 05:14:46;;;;;;;1.83;1.80;;;23.00;70.30;;;;;;5067398;28;43756;-68
2022/07/04 05:17:14;;;;;;;2.00;1.90;;;23.00;70.20;;;;;;5067527;28;43997;-70
2022/07/04 05:19:42;;;;;;;1.87;1.70;;;23.20;70.00;;;;;;5066455;28;43600;-69
2022/07/04 05:22:10;;;;;;;2.10;2.00;;;23.20;69.60;;;;;;5067243;28;43883;-70
2022/07/04 05:24:39;;;;;;;1.70;1.60;;;23.40;69.40;;;;;;5067271;28;43940;-69
2022/07/04 05:27:08;;;;;;;1.80;1.70;;;23.50;68.80;;;;;;5067339;28;44011;-69
2022/07/04 05:29:37;;;;;;;1.60;1.60;;;23.60;68.40;;;;;;5067612;28;43979;-69
2022/07/04 05:32:06;;;;;;;1.53;1.50;;;23.80;68.10;;;;;;5067145;28;44057;-69
2022/07/04 05:34:34;;;;;;;1.50;1.50;;;23.90;67.80;;;;;;5067097;28;44018;-70
2022/07/04 05:37:02;;;;;;;2.00;1.90;;;24.00;67.40;;;;;;5066615;28;43935;-69
2022/07/04 05:39:30;;;;;;;2.03;1.90;;;24.10;67.10;;;;;;5067282;28;44048;-70
2022/07/04 05:41:58;;;;;;;1.40;1.40;;;24.20;66.90;;;;;;5067011;28;43948;-69
2022/07/04 05:44:28;;;;;;;1.63;1.63;;;24.20;66.60;;;;;;5066999;28;43471;-69
2022/07/04 05:46:57;;;;;;;1.60;1.60;;;24.20;66.60;;;;;;5067011;28;43998;-70
2022/07/04 05:49:25;;;;;;;1.60;1.60;;;24.10;66.80;;;;;;5067444;28;43884;-70
2022/07/04 05:51:53;;;;;;;1.63;1.60;;;23.90;67.00;;;;;;5066465;28;44685;-70
2022/07/04 05:54:21;;;;;;;1.60;1.60;;;23.80;67.40;;;;;;5066844;28;43430;-69
2022/07/04 05:56:49;;;;;;;1.50;1.50;;;23.60;67.60;;;;;;5066941;28;43936;-69
2022/07/04 05:59:17;;;;;;;1.80;1.80;;;23.50;67.90;;;;;;5067354;28;43854;-70
2022/07/04 06:01:45;;;;;;;1.60;1.50;;;23.40;68.30;;;;;;5064808;28;46524;-68
2022/07/04 06:04:15;;;;;;;1.37;1.37;;;23.30;68.50;;;;;;5066671;28;43962;-70
2022/07/04 06:06:43;;;;;;;1.50;1.50;;;23.30;68.80;;;;;;5066648;28;44245;-70
2022/07/04 06:09:11;;;;;;;1.60;1.60;;;23.20;69.00;;;;;;5067211;28;44083;-70
2022/07/04 06:11:43;;;;;;;1.60;1.60;;;23.10;69.00;;;;;;5066492;28;44056;-70
2022/07/04 06:14:12;;;;;;;1.70;1.70;;;23.10;69.20;;;;;;5066859;28;43959;-70
2022/07/04 06:16:39;;;;;;;1.57;1.57;;;23.10;69.30;;;;;;5066843;28;43987;-69
2022/07/04 06:19:08;;;;;;;1.60;1.60;;;23.10;69.50;;;;;;5067391;28;43885;-70
2022/07/04 06:21:37;;;;;;;1.40;1.40;;;23.10;69.50;;;;;;5065855;28;45156;-69
2022/07/04 06:24:06;;;;;;;1.87;1.77;;;23.00;69.50;;;;;;5066515;28;43904;-70
2022/07/04 06:26:34;;;;;;;1.40;1.40;;;23.00;69.70;;;;;;5066565;28;43916;-69
2022/07/04 06:29:02;;;;;;;1.50;1.50;;;23.00;70.50;;;;;;5066888;28;43972;-70
2022/07/04 06:31:30;;;;;;;1.60;1.60;;;23.10;70.60;;;;;;5065873;28;43971;-70
2022/07/04 06:36:45;;;;;;;1.57;1.57;;;23.20;70.00;;;;;;5066391;28;43486;-70
2022/07/04 06:39:13;;;;;;;1.50;1.50;;;23.40;69.70;;;;;;5066753;28;43444;-69
2022/07/04 06:41:41;;;;;;;1.70;1.70;;;23.50;69.10;;;;;;5065763;28;43975;-69
2022/07/04 06:44:09;;;;;;;1.50;1.50;;;23.60;68.80;;;;;;5066379;28;44023;-69
2022/07/04 06:46:40;;;;;;;1.60;1.60;;;23.70;68.40;;;;;;5066605;28;44021;-68
2022/07/04 06:49:08;;;;;;;1.40;1.40;;;23.90;68.20;;;;;;5068160;28;43963;-70
2022/07/04 06:51:36;;;;;;;1.47;1.47;;;24.00;67.80;;;;;;5069429;28;43888;-70
2022/07/04 06:54:06;;;;;;;1.40;1.40;;;24.10;67.40;;;;;;5069574;28;44066;-69
2022/07/04 06:56:34;;;;;;;1.40;1.40;;;24.20;67.20;;;;;;5069380;28;43395;-69
2022/07/04 06:59:04;;;;;;;1.40;1.40;;;24.20;66.80;;;;;;5069886;28;43991;-69
2022/07/04 07:01:32;;;;;;;1.30;1.30;;;24.20;66.80;;;;;;5069357;28;43685;-68
2022/07/04 07:04:00;;;;;;;2.97;1.53;;;24.10;67.00;;;;;;5069512;28;43951;-70
2022/07/04 07:06:29;;;;;;;1.27;1.27;;;23.90;67.20;;;;;;5069447;28;44013;-69
2022/07/04 07:08:57;;;;;;;1.47;1.47;;;23.80;67.60;;;;;;5069732;28;43808;-68
2022/07/04 07:11:26;;;;;;;1.30;1.30;;;23.60;67.80;;;;;;5069234;28;44038;-70
2022/07/04 07:13:54;;;;;;;1.30;1.30;;;23.50;68.00;;;;;;5069384;28;43824;-69
2022/07/04 07:16:22;;;;;;;1.40;1.40;;;23.40;68.40;;;;;;5069443;28;43825;-69
2022/07/04 07:18:50;;;;;;;1.50;1.50;;;23.30;68.60;;;;;;5069731;28;44022;-70
2022/07/04 07:21:18;;;;;;;1.50;1.50;;;23.20;68.80;;;;;;5069090;28;44483;-69
2022/07/04 07:23:46;;;;;;;1.40;1.40;;;23.20;69.00;;;;;;5068887;28;44150;-69
2022/07/04 07:26:14;;;;;;;1.60;1.60;;;23.10;69.10;;;;;;5069131;28;44049;-70
2022/07/04 07:28:43;;;;;;;1.40;1.40;;;23.10;69.30;;;;;;5069810;28;43987;-68
2022/07/04 07:31:11;;;;;;;1.63;1.63;;;23.10;69.40;;;;;;5069148;28;44747;-69
2022/07/04 07:33:39;;;;;;;1.30;1.30;;;23.10;69.50;;;;;;5068977;28;43977;-69
2022/07/04 07:36:08;;;;;;;1.40;1.40;;;23.10;69.50;;;;;;5069089;28;43502;-70
2022/07/04 07:38:36;;;;;;;1.40;1.40;;;23.10;69.60;;;;;;5069511;28;43944;-70
2022/07/04 07:41:03;;;;;;;1.37;1.37;;;23.00;69.60;;;;;;5068676;28;43978;-69
2022/07/04 07:43:31;;;;;;;1.40;1.40;;;23.00;69.50;;;;;;5068790;28;44113;-70
2022/07/04 07:46:01;;;;;;;1.40;1.40;;;23.00;69.80;;;;;;5068761;28;43904;-70
2022/07/04 07:48:29;;;;;;;1.53;1.50;;;23.00;70.50;;;;;;5069371;28;43963;-70
2022/07/04 07:50:57;;;;;;;1.40;1.40;;;23.10;71.30;;;;;;5068592;28;43995;-70
2022/07/04 07:53:25;;;;;;;1.50;1.50;;;23.10;71.10;;;;;;5068727;28;44010;-69
2022/07/04 07:55:53;;;;;;;1.37;1.37;;;23.30;70.10;;;;;;5068686;28;43973;-69
2022/07/04 07:58:21;;;;;;;1.30;1.30;;;23.40;69.60;;;;;;5069071;28;43948;-69
2022/07/04 08:00:49;;;;;;;1.50;1.50;;;23.50;68.90;;;;;;5068017;28;43719;-69
2022/07/04 08:06:09;;;;;;;2.00;1.27;;;23.80;68.20;;;;;;5067262;28;44011;-69
2022/07/04 08:08:37;;;;;;;1.40;1.40;;;23.90;67.90;;;;;;5062698;28;43909;-70
2022/07/04 08:11:05;;;;;;;1.40;1.40;;;24.00;67.70;;;;;;5060394;28;45466;-70
2022/07/04 08:13:33;;;;;;;1.17;1.17;;;24.10;67.40;;;;;;5062139;28;43798;-69
2022/07/04 08:16:01;;;;;;;1.30;1.30;;;24.10;67.10;;;;;;5068317;28;43401;-69
2022/07/04 08:18:31;;;;;;;1.30;1.30;;;24.10;67.10;;;;;;5068878;28;43872;-70
2022/07/04 08:20:59;;;;;;;1.20;1.20;;;24.00;68.30;;;;;;5066565;28;47422;-69
2022/07/04 08:23:30;;;;;;;1.40;1.40;;;23.80;67.60;;;;;;5068287;28;43897;-69
2022/07/04 08:25:58;;;;;;;1.20;1.20;;;23.70;67.90;;;;;;5068241;28;44110;-69
2022/07/04 08:28:26;;;;;;;1.20;1.20;;;23.50;68.00;;;;;;5068503;28;43901;-69
2022/07/04 08:30:54;;;;;;;1.30;1.30;;;23.40;68.30;;;;;;5067950;28;43990;-69
2022/07/04 08:33:22;;;;;;;1.30;1.30;;;23.30;68.60;;;;;;5068031;28;44293;-69
2022/07/04 08:35:53;;;;;;;1.20;1.20;;;23.30;68.90;;;;;;5068092;28;43968;-71
2022/07/04 08:38:21;;;;;;;1.40;1.40;;;23.20;69.00;;;;;;5068698;28;43851;-69
2022/07/04 08:40:50;;;;;;;1.33;1.33;;;23.20;69.20;;;;;;5067502;28;43959;-69
2022/07/04 08:43:18;;;;;;;1.10;1.10;;;23.10;69.30;;;;;;5068007;28;43829;-70
2022/07/04 08:45:46;;;;;;;1.10;1.10;;;23.10;69.40;;;;;;5067997;28;43963;-70
2022/07/04 08:48:34;;;;;;;1.30;1.30;;;23.10;69.50;;;;;;5068343;28;44042;-69
2022/07/04 08:51:08;;;;;;;1.30;1.30;;;23.10;69.50;;;;;;5067522;28;43716;-70
2022/07/04 08:53:36;;;;;;;1.20;1.20;;;23.10;69.50;;;;;;5067744;28;43961;-70
2022/07/04 08:58:50;;;;;;;1.30;1.30;;;23.00;70.60;;;;;;5068223;28;43396;-70
2022/07/04 09:01:18;;;;;;;1.33;1.33;;;23.10;70.70;;;;;;5067476;28;43863;-70
2022/07/04 09:03:46;;;;;;;1.30;1.30;;;23.10;70.40;;;;;;5067302;28;43935;-70
2022/07/04 09:06:16;;;;;;;1.33;1.33;;;23.20;70.20;;;;;;5067479;28;43950;-69
2022/07/04 09:08:44;;;;;;;1.50;1.50;;;23.40;69.80;;;;;;5067999;28;43425;-70
2022/07/04 09:11:12;;;;;;;1.50;1.50;;;23.50;69.30;;;;;;5066827;28;44000;-70
2022/07/04 09:13:40;;;;;;;1.10;1.10;;;23.60;68.80;;;;;;5067371;28;43501;-69
2022/07/04 09:16:08;;;;;;;1.33;1.33;;;23.70;68.50;;;;;;5067722;28;43795;-69
2022/07/04 09:18:36;;;;;;;1.20;1.20;;;23.90;68.40;;;;;;5067859;28;43392;-70
2022/07/04 09:21:05;;;;;;;1.10;1.10;;;23.90;67.80;;;;;;5067179;28;45485;-69
2022/07/04 09:23:36;;;;;;;1.43;1.33;;;24.00;67.40;;;;;;5067171;28;43978;-69
2022/07/04 09:26:08;;;;;;;1.20;1.20;;;24.10;67.10;;;;;;5067296;28;43978;-69
2022/07/04 09:28:36;;;;;;;1.20;1.20;;;24.10;67.00;;;;;;5067783;28;43348;-69
2022/07/04 09:31:17;;;;;;;1.33;1.33;;;24.00;67.30;;;;;;5066970;28;43938;-70
2022/07/04 09:33:50;;;;;;;1.10;1.10;;;23.90;67.60;;;;;;5067099;28;43875;-69
2022/07/04 09:36:20;;;;;;;1.10;1.10;;;23.70;67.70;;;;;;5067232;28;43762;-68
2022/07/04 09:39:11;;;;;;;1.23;1.23;;;23.60;67.90;;;;;;5067607;28;43299;-70
2022/07/04 09:41:51;;;;;;;1.23;1.23;;;23.50;68.10;;;;;;5067002;28;43657;-69
2022/07/04 09:44:19;;;;;;;1.27;1.27;;;23.40;68.50;;;;;;5067116;28;43715;-69
2022/07/04 09:46:47;;;;;;;1.20;1.20;;;23.30;68.70;;;;;;5067005;28;43999;-69
2022/07/04 09:49:15;;;;;;;1.20;1.20;;;23.20;68.70;;;;;;5067470;28;44029;-70
2022/07/04 09:51:44;;;;;;;1.07;1.07;;;23.20;68.80;;;;;;5066713;28;43775;-69
2022/07/04 09:54:18;;;;;;;1.10;1.10;;;23.20;69.00;;;;;;5067013;28;44126;-70
2022/07/04 09:56:47;;;;;;;1.20;1.20;;;23.10;69.00;;;;;;5067112;28;43433;-69
2022/07/04 09:59:15;;;;;;;1.10;1.10;;;23.10;69.10;;;;;;5067307;28;43902;-69
2022/07/04 10:01:43;;;;;;;1.30;1.13;;;23.10;69.20;;;;;;5066013;28;43989;-69
2022/07/04 10:04:13;;;;;;;1.20;1.20;;;23.00;69.20;;;;;;5067009;28;43407;-69
2022/07/04 10:06:41;;;;;;;1.00;1.00;;;23.00;69.30;;;;;;5067031;28;43382;-69
2022/07/04 10:09:11;;;;;;;1.20;1.10;;;23.00;69.40;;;;;;5067512;28;43825;-69
2022/07/04 10:11:41;;;;;;;1.10;1.10;;;23.00;69.40;;;;;;5066668;28;43971;-69
2022/07/04 10:14:11;;;;;;;1.10;1.10;;;23.00;69.40;;;;;;5066569;28;44853;-70
2022/07/04 10:16:40;;;;;;;1.20;1.20;;;23.00;69.80;;;;;;5066996;28;43952;-69
2022/07/04 10:19:08;;;;;;;1.00;1.00;;;23.00;70.50;;;;;;5065788;28;43564;-70
2022/07/04 10:21:36;;;;;;;1.10;1.10;;;23.00;70.50;;;;;;5066278;28;43977;-70
2022/07/04 10:24:05;;;;;;;1.10;1.10;;;23.10;70.20;;;;;;5067710;28;44014;-69
2022/07/04 10:26:33;;;;;;;1.20;1.20;;;23.30;69.80;;;;;;5070049;28;43369;-70
2022/07/04 10:29:02;;;;;;;1.17;1.17;;;23.40;69.40;;;;;;5070675;28;43925;-70
2022/07/04 10:31:31;;;;;;;1.20;1.00;;;23.60;68.80;;;;;;5070080;28;44029;-68
2022/07/04 10:33:59;;;;;;;1.00;1.00;;;23.70;68.40;;;;;;5069889;28;43742;-70
2022/07/04 10:36:29;;;;;;;1.10;1.10;;;23.80;68.00;;;;;;5069996;28;43926;-69
2022/07/04 10:38:58;;;;;;;0.90;0.90;;;23.90;67.70;;;;;;5070317;28;43415;-70
2022/07/04 10:41:27;;;;;;;1.00;1.00;;;24.00;67.50;;;;;;5069489;28;44056;-70
2022/07/04 10:43:59;;;;;;;1.23;1.23;;;24.00;67.10;;;;;;5063036;28;43847;-70
2022/07/04 10:46:30;;;;;;;1.00;1.00;;;24.00;67.20;;;;;;5063611;28;43932;-69
2022/07/04 10:48:59;;;;;;;1.20;1.20;;;23.90;67.50;;;;;;5070371;28;43976;-69
2022/07/04 10:51:38;;;;;;;1.20;1.20;;;23.70;67.70;;;;;;5069596;28;44010;-70
2022/07/04 10:54:09;;;;;;;1.00;1.00;;;23.50;67.70;;;;;;5069646;28;44085;-70
2022/07/04 10:56:42;;;;;;;1.00;1.00;;;23.50;68.00;;;;;;5068259;28;44062;-69
2022/07/04 10:59:12;;;;;;;1.00;1.00;;;23.30;68.20;;;;;;5070319;28;43977;-69
2022/07/04 11:01:51;;;;;;;1.10;1.10;;;23.30;68.20;;;;;;5068982;28;43832;-69
2022/07/04 11:04:47;;;;;;;0.90;0.90;;;23.20;68.40;;;;;;5069789;28;43966;-69
2022/07/04 11:07:15;;;;;;;1.20;1.20;;;23.10;68.70;;;;;;5069389;28;44008;-69
2022/07/04 11:09:43;;;;;;;1.10;1.10;;;23.10;68.90;;;;;;5069886;28;44065;-68
2022/07/04 11:12:14;;;;;;;1.10;1.10;;;23.10;69.10;;;;;;5068011;28;46035;-68
2022/07/04 11:14:43;;;;;;;0.90;0.90;;;23.10;69.10;;;;;;5069585;28;43321;-70
2022/07/04 11:17:13;;;;;;;1.03;1.03;;;23.00;69.30;;;;;;5069473;28;43926;-69
2022/07/04 11:19:45;;;;;;;1.10;1.10;;;23.00;70.30;;;;;;5069692;28;43919;-69
2022/07/04 11:22:14;;;;;;;1.10;1.10;;;23.00;70.40;;;;;;5067590;28;45810;-70
2022/07/04 11:24:42;;;;;;;1.03;1.03;;;23.10;70.50;;;;;;5069141;28;43934;-70
2022/07/04 11:27:10;;;;;;;1.00;1.00;;;23.20;70.20;;;;;;5069429;28;43958;-69
2022/07/04 11:29:38;;;;;;;1.00;1.00;;;23.30;69.60;;;;;;5069475;28;43975;-70
2022/07/04 11:32:07;;;;;;;0.93;0.93;;;23.40;69.20;;;;;;5068995;28;43975;-69
2022/07/04 11:34:36;;;;;;;1.20;1.20;;;23.60;68.80;;;;;;5068485;28;43950;-69
2022/07/04 11:37:04;;;;;;;1.00;1.00;;;23.70;68.30;;;;;;5069099;28;43750;-69
2022/07/04 11:39:32;;;;;;;0.90;0.90;;;23.80;68.00;;;;;;5069364;28;44003;-70
2022/07/04 11:45:05;;;;;;;0.90;0.90;;;24.00;67.40;;;;;;5062217;28;43986;-69
2022/07/04 11:47:34;;;;;;;1.03;1.03;;;24.00;67.00;;;;;;5067704;28;44049;-69
2022/07/04 11:50:04;;;;;;;0.87;0.87;;;23.90;67.20;;;;;;5069295;28;43912;-70
2022/07/04 11:52:39;;;;;;;0.87;0.87;;;23.80;67.50;;;;;;5068477;28;44004;-69
2022/07/04 11:55:27;;;;;;;1.07;1.07;;;23.70;67.60;;;;;;5068279;28;44051;-69
2022/07/04 11:57:57;;;;;;;1.10;1.10;;;23.50;67.80;;;;;;5062205;28;43947;-70
2022/07/04 12:00:27;;;;;;;1.03;1.03;;;23.40;68.10;;;;;;5061315;28;43587;-68
2022/07/04 12:02:59;;;;;;;0.93;0.93;;;23.30;68.40;;;;;;5068164;28;43731;-69
2022/07/04 12:05:28;;;;;;;0.90;0.90;;;23.20;68.60;;;;;;5068557;28;44103;-69
2022/07/04 12:07:56;;;;;;;1.00;1.00;;;23.20;68.80;;;;;;5068427;28;43949;-69
2022/07/04 12:10:44;;;;;;;1.10;1.10;;;23.20;68.90;;;;;;5067320;28;43998;-69
2022/07/04 12:13:16;;;;;;;0.93;0.93;;;23.10;69.00;;;;;;5068415;28;44049;-70
2022/07/04 12:15:45;;;;;;;1.20;1.10;;;23.10;69.10;;;;;;5068388;28;44039;-68
2022/07/04 12:18:17;;;;;;;1.03;1.03;;;23.10;68.90;;;;;;5066873;28;43964;-70
2022/07/04 12:20:46;;;;;;;2.07;1.10;;;23.00;68.60;;;;;;5068615;28;43965;-70
2022/07/04 12:23:14;;;;;;;1.10;1.10;;;23.00;68.40;;;;;;5067987;28;43982;-70
2022/07/04 12:25:45;;;;;;;0.93;0.90;;;23.00;68.20;;;;;;5066908;28;43990;-69
2022/07/04 12:28:14;;;;;;;1.13;1.13;;;23.00;68.10;;;;;;5068163;28;44323;-68
2022/07/04 12:30:50;;;;;;;4.00;1.50;;;23.00;68.40;;;;;;5068579;28;43852;-69
2022/07/04 12:33:19;;;;;;;1.57;1.30;;;23.00;68.40;;;;;;5061702;28;43912;-69
2022/07/04 12:35:49;;;;;;;1.77;1.63;;;23.00;68.10;;;;;;5062050;28;43974;-69
2022/07/04 12:38:20;;;;;;;1.50;1.33;;;23.10;67.20;;;;;;5068028;28;43325;-69
2022/07/04 12:40:56;;;;;;;1.50;1.40;;;23.20;67.20;;;;;;5068197;28;43348;-69
2022/07/04 12:43:25;;;;;;;1.53;1.40;;;23.30;63.80;;;;;;5066254;28;46273;-70
2022/07/04 12:45:55;;;;;;;2.33;1.50;;;23.40;65.00;;;;;;5067403;28;43883;-69
2022/07/04 12:48:25;;;;;;;1.73;1.60;;;23.50;63.50;;;;;;5067505;28;44069;-69
2022/07/04 12:50:54;;;;;;;1.73;1.40;;;23.70;62.00;;;;;;5068295;28;44047;-69
2022/07/04 12:53:22;;;;;;;1.70;1.60;;;23.70;62.50;;;;;;5067656;28;43896;-69
2022/07/04 12:55:51;;;;;;;5.50;1.87;;;23.90;63.20;;;;;;5067730;28;43974;-69
2022/07/04 12:58:19;;;;;;;1.83;1.47;;;23.90;63.50;;;;;;5066427;28;43938;-69
2022/07/04 13:00:47;;;;;;;2.33;1.73;;;24.00;62.80;;;;;;5068221;28;43988;-69
2022/07/04 13:03:15;;;;;;;1.80;1.70;;;24.00;61.50;;;;;;5067344;28;43947;-69
2022/07/04 13:05:44;;;;;;;1.60;1.50;;;24.00;61.70;;;;;;5067650;28;43311;-69
2022/07/04 13:08:13;;;;;;;1.60;1.60;;;23.80;62.60;;;;;;5067795;28;43916;-70
2022/07/04 13:10:41;;;;;;;1.67;1.57;;;23.70;63.70;;;;;;5068255;28;43985;-70
2022/07/04 13:13:09;;;;;;;1.73;1.63;;;23.50;64.10;;;;;;5067382;28;43968;-69
2022/07/04 13:15:37;;;;;;;1.47;1.47;;;23.40;64.70;;;;;;5067488;28;43939;-71
2022/07/04 13:18:05;;;;;;;1.30;1.30;;;23.30;65.00;;;;;;5066032;28;43385;-70